Impacts METAR Board
IDs:

KJAN - Jackson/Evers Intl, MS, US

Updated at: 2200 UTC 23 May 2018
Potential Impact None Slight Moderate High
Time 23/10Z 23/11Z 23/12Z 23/13Z 23/14Z 23/15Z 23/16Z 23/17Z 23/18Z 23/19Z 23/20Z 23/21Z 23/22Z
Temp69 69 70 71 77 80 83 85 87 87 84 86 89
Dewpt68 67 68 69 70 71 71 71 70 68 71 70 69
Altim30.03 30.05 30.08 30.09 30.10 30.10 30.11 30.09 30.07 30.05 30.03 30.02 30.01
VIS10 10 10 10 10 10 10 10 10 10 10 10 10
CIG-- -- -- -- 120 250 -- 250 250 250 40 39 40
CoverCLRSCTSCTSCTBKNBKNSCTBKNBKNBKNBKNBKNBKN
FltCatVFRVFRVFRVFRVFRVFRVFRVFRVFRVFRVFRVFRVFR
WX--------------------------
WDir220006018021006090021000
WSpd3 0 0 3 3 3 0 6 4 4 6 4 4
WGst-- -- -- -- -- -- -- -- -- -- -- -- --
Raw hourly METARs
KJAN 230954Z AUTO 22003KT 10SM CLR 21/20 A3003 RMK AO2 SLP166 T02060200 $
KJAN 231054Z 00000KT 10SM FEW100 SCT250 21/19 A3005 RMK AO2 SLP172 T02060194 $
KJAN 231154Z 00000KT 10SM FEW100 SCT250 21/20 A3008 RMK AO2 SLP181 T02110200 10222 20200 53022 $
KJAN 231254Z COR 06003KT 10SM SCT120 22/21 A3009 RMK AO2 SLP185 T02170206
KJAN 231354Z 18003KT 10SM BKN120 25/21 A3010 RMK AO2 SLP187 T02500211
KJAN 231454Z 21003KT 10SM FEW120 BKN250 27/22 A3010 RMK AO2 SLP189 T02670217 51009
KJAN 231554Z 00000KT 10SM FEW025 SCT250 28/22 A3011 RMK AO2 SLP189 T02830217
KJAN 231654Z 06006KT 10SM SCT034 SCT050 BKN250 29/22 A3009 RMK AO2 SLP185 T02940217
KJAN 231754Z 09004KT 10SM FEW034 SCT050 BKN250 31/21 A3007 RMK AO2 SLP178 T03060211 10311 20211 58011
KJAN 231854Z VRB04KT 10SM SCT040 BKN250 31/20 A3005 RMK AO2 SLP169 T03060200
KJAN 231954Z 21006KT 10SM BKN040 BKN250 29/22 A3003 RMK AO2 SLP164 T02890217
KJAN 232054Z VRB04KT 10SM BKN039 BKN100 30/21 A3002 RMK AO2 LTG DSNT N SLP160 T03000211 56018
KJAN 232154Z COR VRB04KT 10SM BKN040 32/21 A3001 RMK AO2 LTG DSNT N AND S AND NW SLP158 T03170206



Page loaded:  22:24 UTC  |   03:24 PM Pacific  |   04:24 PM Mountain  |   05:24 PM Central  |   06:24 PM Eastern

 

ADVISORIES

FORECASTS

FORECASTS

OBSERVATIONS

USER TOOLS

ABOUT US